createdAt,value
2023-02-24T00:01:19.278Z,6.72
2023-02-24T00:06:22.670Z,6.50
2023-02-24T00:11:26.247Z,6.80
2023-02-24T00:16:31.201Z,7.30
2023-02-24T00:21:34.954Z,6.78
2023-02-24T00:26:39.082Z,7.55
2023-02-24T00:31:44.065Z,7.10
2023-02-24T00:36:47.486Z,7.13
2023-02-24T00:41:51.256Z,7.65
2023-02-24T00:46:56.000Z,7.68
2023-02-24T00:51:59.837Z,7.40
2023-02-24T00:57:04.077Z,7.78
2023-02-24T01:02:08.906Z,7.00
2023-02-24T01:07:13.254Z,6.95
2023-02-24T01:12:38.697Z,7.40
2023-02-24T01:17:43.869Z,6.80
2023-02-24T01:22:48.936Z,7.05
2023-02-24T01:27:54.037Z,7.00
2023-02-24T01:32:58.887Z,6.88
2023-02-24T01:38:05.837Z,6.72
2023-02-24T01:43:11.867Z,6.70
2023-02-24T01:48:17.995Z,7.00
2023-02-24T01:53:21.571Z,6.82
2023-02-24T01:58:28.205Z,7.68
2023-02-24T02:03:36.333Z,7.60
2023-02-24T02:08:43.000Z,7.13
2023-02-24T02:13:50.344Z,7.18
2023-02-24T02:19:06.900Z,7.70
2023-02-24T02:24:34.073Z,8.82
2023-02-24T02:30:09.354Z,9.32
2023-02-24T02:35:19.162Z,8.40
2023-02-24T02:40:27.680Z,8.90
2023-02-24T02:45:37.629Z,8.30
2023-02-24T02:50:47.581Z,8.68
2023-02-24T02:55:55.963Z,7.97
2023-02-24T03:01:02.934Z,6.85
2023-02-24T03:06:14.467Z,8.73
2023-02-24T03:11:20.577Z,8.98
2023-02-24T03:16:26.653Z,8.73
2023-02-24T03:21:34.869Z,8.57
2023-02-24T03:26:44.246Z,8.35
2023-02-24T03:31:58.609Z,9.43
2023-02-24T03:37:03.575Z,9.40
2023-02-24T03:42:14.095Z,9.38
2023-02-24T03:47:20.490Z,8.10
2023-02-24T03:52:33.625Z,8.30
2023-02-24T03:57:55.955Z,9.38
2023-02-24T04:03:15.373Z,8.18
2023-02-24T04:08:24.186Z,9.40
2023-02-24T04:13:35.879Z,9.52
2023-02-24T04:18:51.078Z,9.23
2023-02-24T04:23:58.414Z,8.55
2023-02-24T04:29:03.024Z,9.45
2023-02-24T04:34:09.868Z,8.38
2023-02-24T04:39:18.974Z,8.10
2023-02-24T04:44:28.301Z,7.75
2023-02-24T04:49:31.635Z,7.93
2023-02-24T04:54:36.647Z,9.30
2023-02-24T04:59:40.779Z,7.68
2023-02-24T05:04:44.695Z,8.95
2023-02-24T05:09:49.821Z,7.97
2023-02-24T05:14:54.779Z,7.25
2023-02-24T05:20:15.296Z,7.35
2023-02-24T05:25:25.367Z,8.20
2023-02-24T05:30:29.636Z,8.40
2023-02-24T05:35:33.365Z,7.63
2023-02-24T05:40:45.420Z,8.15
2023-02-24T05:45:49.418Z,8.93
2023-02-24T05:50:55.158Z,8.77
2023-02-24T05:56:06.014Z,7.35
2023-02-24T06:01:16.411Z,8.73
2023-02-24T06:06:19.799Z,9.00
2023-02-24T06:11:24.803Z,8.20
2023-02-24T06:16:28.378Z,9.18
2023-02-24T06:21:31.800Z,8.13
2023-02-24T06:26:36.994Z,7.07
2023-02-24T06:31:41.828Z,7.53
2023-02-24T06:36:47.085Z,8.85
2023-02-24T06:41:52.988Z,9.07
2023-02-24T06:46:56.448Z,9.15
2023-02-24T06:52:00.203Z,9.15
2023-02-24T06:57:09.927Z,10.23
2023-02-24T07:02:13.315Z,8.85
2023-02-24T07:07:17.725Z,10.02
2023-02-24T07:12:22.954Z,5.15
2023-02-24T07:17:26.526Z,7.35
2023-02-24T07:22:29.979Z,8.77
2023-02-24T07:27:34.788Z,7.93
2023-02-24T07:32:40.659Z,8.27
2023-02-24T07:37:43.982Z,8.23
2023-02-24T07:42:48.901Z,7.07
2023-02-24T07:47:52.356Z,7.72
2023-02-24T07:52:55.781Z,7.38
2023-02-24T07:58:01.666Z,6.97
2023-02-24T08:03:05.800Z,7.68
2023-02-24T08:08:09.244Z,6.95
2023-02-24T08:13:13.987Z,7.18
2023-02-24T08:18:20.112Z,7.07
2023-02-24T08:23:24.368Z,6.75
2023-02-24T08:28:29.175Z,7.07
2023-02-24T08:33:32.992Z,7.75
2023-02-24T08:38:52.299Z,7.47
2023-02-24T08:43:57.191Z,6.53
2023-02-24T08:49:01.609Z,5.88
2023-02-24T08:54:11.199Z,6.47
2023-02-24T08:59:38.018Z,6.40
2023-02-24T09:04:44.942Z,6.40
2023-02-24T09:09:48.872Z,6.45
2023-02-24T09:14:56.733Z,6.68
2023-02-24T09:20:31.927Z,7.18
2023-02-24T09:25:44.886Z,6.90
2023-02-24T09:30:53.589Z,7.15
2023-02-24T09:36:10.080Z,5.30
2023-02-24T09:41:32.044Z,4.90
2023-02-24T09:46:54.229Z,5.43
2023-02-24T09:52:09.041Z,6.10
2023-02-24T09:57:18.322Z,5.45
2023-02-24T10:02:39.609Z,5.90
2023-02-24T10:07:45.214Z,5.07
2023-02-24T10:12:53.576Z,6.32
2023-02-24T10:18:05.096Z,5.50
2023-02-24T10:23:16.024Z,5.13
2023-02-24T10:28:35.816Z,4.10
2023-02-24T10:33:48.732Z,3.67
2023-02-24T10:38:56.076Z,4.03
2023-02-24T10:44:00.369Z,2.92
2023-02-24T10:49:10.064Z,3.97
2023-02-24T10:54:34.419Z,4.05
2023-02-24T11:00:05.363Z,4.18
2023-02-24T11:05:28.552Z,3.25
2023-02-24T11:10:42.866Z,3.83
2023-02-24T11:16:06.680Z,3.35
2023-02-24T11:21:14.484Z,3.50
2023-02-24T11:26:20.728Z,3.20
2023-02-24T11:31:40.482Z,2.75
2023-02-24T11:36:55.068Z,2.45
2023-02-24T11:42:01.798Z,3.00
2023-02-24T11:47:12.171Z,3.58
2023-02-24T11:52:21.538Z,3.08
2023-02-24T11:57:31.972Z,3.15
2023-02-24T12:02:43.723Z,2.65
2023-02-24T12:07:52.215Z,2.50
2023-02-24T12:13:05.249Z,2.20
2023-02-24T12:18:17.807Z,2.40
2023-02-24T12:23:27.217Z,2.20
2023-02-24T12:28:48.820Z,1.70
2023-02-24T12:34:04.114Z,2.22
2023-02-24T12:39:15.974Z,2.42
2023-02-24T12:44:28.121Z,2.10
2023-02-24T12:49:47.299Z,1.83
2023-02-24T12:54:59.482Z,2.25
2023-02-24T13:00:11.792Z,1.88
2023-02-24T13:05:22.185Z,2.40
2023-02-24T13:10:37.722Z,1.85
2023-02-24T13:15:51.921Z,1.90
2023-02-24T13:21:07.586Z,1.70
2023-02-24T13:26:12.410Z,1.63
2023-02-24T13:31:15.989Z,1.38
2023-02-24T13:36:21.978Z,1.70
2023-02-24T13:41:41.827Z,1.30
2023-02-24T13:46:59.016Z,1.83
2023-02-24T13:52:05.078Z,1.30
2023-02-24T13:57:30.148Z,1.10
2023-02-24T14:02:42.889Z,1.45
2023-02-24T14:07:49.487Z,1.70
2023-02-24T14:13:05.019Z,1.90
2023-02-24T14:18:18.605Z,1.55
2023-02-24T14:23:25.053Z,1.30
2023-02-24T14:28:32.595Z,1.63
2023-02-24T14:33:38.139Z,2.00
2023-02-24T14:38:43.327Z,1.70
2023-02-24T14:43:47.995Z,1.67
2023-02-24T14:48:55.376Z,1.67
2023-02-24T14:54:06.076Z,1.60
2023-02-24T14:59:59.715Z,2.00
2023-02-24T15:05:04.923Z,2.55
2023-02-24T15:10:18.659Z,1.90
2023-02-24T15:15:24.389Z,1.80
2023-02-24T15:20:34.024Z,1.90
2023-02-24T15:25:44.834Z,2.15
2023-02-24T15:31:00.406Z,2.00
2023-02-24T15:36:11.238Z,1.73
2023-02-24T15:41:16.242Z,2.10
2023-02-24T15:46:26.281Z,1.92
2023-02-24T15:51:37.094Z,2.20
2023-02-24T15:56:42.669Z,2.50
2023-02-24T16:01:46.994Z,2.00
2023-02-24T16:06:55.432Z,1.83
2023-02-24T16:11:59.259Z,1.75
2023-02-24T16:17:09.098Z,1.70
2023-02-24T16:22:13.863Z,2.03
2023-02-24T16:27:19.217Z,1.98
2023-02-24T16:32:27.141Z,2.15
2023-02-24T16:37:32.216Z,2.22
2023-02-24T16:42:36.101Z,2.00
2023-02-24T16:47:41.131Z,2.45
2023-02-24T16:52:46.654Z,1.90
2023-02-24T16:57:50.770Z,2.35
2023-02-24T17:02:55.472Z,2.03
2023-02-24T17:08:00.576Z,2.20
2023-02-24T17:13:04.136Z,2.50
2023-02-24T17:18:08.729Z,2.50
2023-02-24T17:23:15.778Z,2.08
2023-02-24T17:28:19.975Z,2.10
2023-02-24T17:33:24.317Z,2.47
2023-02-24T17:38:31.008Z,2.40
2023-02-24T17:43:35.331Z,2.75
2023-02-24T17:48:39.200Z,2.60
2023-02-24T17:53:44.773Z,2.85
2023-02-24T17:58:49.387Z,2.42
2023-02-24T18:03:53.984Z,2.33
2023-02-24T18:08:59.332Z,2.33
2023-02-24T18:14:05.412Z,2.08
2023-02-24T18:19:11.437Z,2.53
2023-02-24T18:24:19.221Z,2.22
2023-02-24T18:29:26.633Z,2.47
2023-02-24T18:34:31.186Z,2.75
2023-02-24T18:39:38.043Z,2.58
2023-02-24T18:44:42.798Z,2.70
2023-02-24T18:49:48.516Z,2.35
2023-02-24T18:54:56.146Z,2.28
2023-02-24T19:00:01.175Z,2.55
2023-02-24T19:05:06.548Z,2.63
2023-02-24T19:10:14.500Z,3.13
2023-02-24T19:15:19.916Z,2.85
2023-02-24T19:20:24.767Z,2.65
2023-02-24T19:25:31.207Z,3.30
2023-02-24T19:30:36.578Z,3.70
2023-02-24T19:35:43.055Z,3.30
2023-02-24T19:40:52.324Z,3.33
2023-02-24T19:45:57.008Z,3.72
2023-02-24T19:51:05.601Z,3.40
2023-02-24T19:56:12.579Z,3.33
2023-02-24T20:01:19.098Z,3.28
2023-02-24T20:06:29.810Z,2.90
2023-02-24T20:11:40.575Z,3.78
2023-02-24T20:16:45.903Z,3.30
2023-02-24T20:21:50.731Z,3.38
2023-02-24T20:26:57.221Z,2.92
2023-02-24T20:32:01.917Z,1.98
2023-02-24T20:37:07.152Z,2.08
2023-02-24T20:42:15.197Z,1.90
2023-02-24T20:47:19.967Z,1.67
2023-02-24T20:52:24.894Z,1.30
2023-02-24T20:57:31.378Z,1.73
2023-02-24T21:02:35.594Z,1.20
2023-02-24T21:07:42.193Z,1.48
2023-02-24T21:12:50.067Z,1.23
2023-02-24T21:17:54.488Z,1.02
2023-02-24T21:23:01.592Z,1.17
2023-02-24T21:28:07.516Z,0.75
2023-02-24T21:33:11.652Z,1.10
2023-02-24T21:38:15.299Z,0.98
2023-02-24T21:43:21.802Z,1.02
2023-02-24T21:48:25.616Z,1.30
2023-02-24T21:53:30.097Z,1.02
2023-02-24T21:58:34.784Z,1.10
2023-02-24T22:03:38.274Z,1.70
2023-02-24T22:08:45.601Z,1.00
2023-02-24T22:13:50.973Z,0.88
2023-02-24T22:18:55.771Z,2.28
2023-02-24T22:24:01.128Z,0.95
2023-02-24T22:29:06.092Z,1.00
2023-02-24T22:34:09.460Z,1.20
2023-02-24T22:39:16.692Z,0.93
2023-02-24T22:44:21.436Z,0.95
2023-02-24T22:49:24.709Z,1.02
2023-02-24T22:54:28.007Z,1.42
2023-02-24T22:59:33.038Z,0.90
2023-02-24T23:04:36.795Z,0.90
2023-02-24T23:09:40.179Z,1.00
2023-02-24T23:14:44.907Z,0.80
2023-02-24T23:19:48.188Z,1.10
2023-02-24T23:24:52.025Z,1.00
2023-02-24T23:29:56.751Z,0.77
2023-02-24T23:35:00.146Z,0.80
2023-02-24T23:40:08.058Z,0.73
2023-02-24T23:45:13.031Z,1.10
2023-02-24T23:50:16.434Z,0.70
2023-02-24T23:55:20.117Z,0.70
